Terminal Aerodrome Forecast
Issued by NWS

Current Version | Previous Version | Text Only | Print | Product List | Glossary Off
Versions: 1 2 3 4 5 6 7 8 9 10 11 12 13 14 15 16

223
FTUS41 KPBZ 211720
TAFHLG
TAF
KHLG 211720Z 2118/2218 27009KT P6SM BKN090
     FM220800 34004KT P6SM OVC025
     FM221200 35005KT P6SM VCSH OVC015
     FM221700 02008KT P6SM OVC025=

USA.gov is the U.S. government's official web portal to all federal, state and local government web resources and services.